Time;durP1;ratioP1;P1;durP2;ratioP2;P2;SDS_P1;SDS_P2;PMS_P1;PMS_P2;Temp;Humidity;BMP_temperature;BMP_pressure;BME280_temperature;BME280_humidity;BME280_pressure;Samples;Min_cycle;Max_cycle;Signal;HPM_P1;HPM_P2
2022/03/21 00:00:29;;;;;;;;;;;;;;;17.67;55.75;100440.38;2092499;28;20044;-56
2022/03/21 00:01:31;;;;;;;4.63;3.47;;;;;;;17.72;55.86;100430.03;2091065;28;20295;-52
2022/03/21 00:02:31;;;;;;;3.97;3.58;;;;;;;17.77;55.62;100427.72;2089391;28;20138;-52
2022/03/21 00:03:33;;;;;;;;;;;;;;;17.68;55.74;100435.88;2089570;28;20092;-54
2022/03/21 00:04:34;;;;;;;3.97;3.22;;;;;;;17.71;55.72;100435.56;2092762;28;20061;-50
2022/03/21 00:05:35;;;;;;;;;;;;;;;17.63;55.92;100434.50;2092235;28;20141;-55
2022/03/21 00:06:38;;;;;;;;;;;;;;;17.58;56.04;100430.59;2091638;28;19928;-58
2022/03/21 00:07:39;;;;;;;3.20;2.90;;;;;;;17.67;55.81;100434.19;2089753;28;19999;-55
2022/03/21 00:08:40;;;;;;;3.35;2.90;;;;;;;17.72;55.72;100434.53;2093174;28;20044;-52
2022/03/21 00:09:42;;;;;;;;;;;;;;;17.62;55.71;100432.78;2094226;28;20047;-51
2022/03/21 00:10:43;;;;;;;;;;;;;;;17.57;55.99;100431.56;2090846;28;19967;-57
2022/03/21 00:11:45;;;;;;;3.83;3.33;;;;;;;17.63;55.83;100431.81;2088484;28;19995;-55
2022/03/21 00:12:46;;;;;;;5.65;3.72;;;;;;;17.69;55.75;100424.13;2088189;28;20052;-58
2022/03/21 00:13:51;;;;;;;;;;;;;;;17.59;55.69;100422.38;2089796;28;20048;-56
2022/03/21 00:14:52;;;;;;;6.55;3.33;;;;;;;17.65;55.71;100429.78;2090605;28;19924;-56
2022/03/21 00:15:54;;;;;;;;;;;;;;;17.57;55.92;100415.47;2090061;28;20043;-53
2022/03/21 00:16:55;;;;;;;4.72;3.42;;;;;;;17.60;55.72;100424.03;2088110;28;19928;-58
2022/03/21 00:17:57;;;;;;;4.43;3.58;;;;;;;17.64;55.63;100419.22;2089807;28;20033;-52
2022/03/21 00:19:00;;;;;;;4.13;3.40;;;;;;;17.67;55.62;100418.09;2088969;28;20060;-51
2022/03/21 00:20:01;;;;;;;3.58;3.28;;;;;;;17.69;55.58;100418.75;2091184;28;20585;-55
2022/03/21 00:21:03;;;;;;;;;;;;;;;17.57;55.72;100421.66;2090627;28;20049;-53
2022/03/21 00:22:05;;;;;;;3.78;3.10;;;;;;;17.62;55.65;100418.53;2090002;28;20414;-54
2022/03/21 00:23:07;;;;;;;4.72;3.38;;;;;;;17.63;55.66;100421.06;2092404;28;20044;-52
2022/03/21 00:24:09;;;;;;;4.85;3.70;;;;;;;17.66;55.66;100417.22;2089978;28;20083;-52
2022/03/21 00:25:10;;;;;;;4.70;4.00;;;;;;;17.67;55.44;100415.41;2091221;28;20056;-54
2022/03/21 00:26:11;;;;;;;;;;;;;;;17.57;55.71;100418.16;2091467;28;20048;-51
2022/03/21 00:27:12;;;;;;;4.72;3.53;;;;;;;17.59;55.74;100408.94;2092550;28;19989;-53
2022/03/21 00:28:14;;;;;;;4.90;3.00;;;;;;;17.62;55.56;100414.00;2093359;28;20220;-53
2022/03/21 00:29:15;;;;;;;4.57;3.92;;;;;;;17.63;55.65;100413.03;2094353;28;20102;-56
2022/03/21 00:30:17;;;;;;;;;;;;;;;17.55;55.72;100412.09;2093722;28;20048;-54
2022/03/21 00:31:19;;;;;;;3.80;3.17;;;;;;;17.57;55.75;100418.97;2090345;28;19921;-56
2022/03/21 00:32:20;;;;;;;4.82;3.58;;;;;;;17.59;55.58;100416.16;2090048;28;20761;-55
2022/03/21 00:33:21;;;;;;;;;;;;;;;17.50;55.74;100415.25;2092850;28;20055;-57
2022/03/21 00:34:22;;;;;;;4.70;3.40;;;;;;;17.52;55.69;100415.91;2090899;28;19924;-55
2022/03/21 00:35:24;;;;;;;;;;;;;;;17.45;56.03;100419.38;2082526;28;20366;-53
2022/03/21 00:36:24;;;;;;;;;;;;;;;17.37;55.96;100418.28;2087725;28;19956;-52
2022/03/21 00:37:27;;;;;;;3.27;2.93;;;;;;;17.46;55.81;100427.25;2091984;28;19924;-55
2022/03/21 00:38:28;;;;;;;3.92;2.95;;;;;;;17.51;55.76;100422.28;2091670;28;20078;-56
2022/03/21 00:39:30;;;;;;;;;;;;;;;17.43;55.89;100417.69;2090518;28;20052;-54
2022/03/21 00:40:31;;;;;;;;;;;;;;;17.36;56.14;100416.63;2093549;28;19921;-52
2022/03/21 00:41:33;;;;;;;;;;;;;;;17.32;56.29;100422.44;2086987;28;19932;-52
2022/03/21 00:42:35;;;;;;;;;;;;;;;17.29;56.20;100412.84;2090733;28;19935;-53
2022/03/21 00:43:36;;;;;;;3.30;2.95;;;;;;;17.38;56.08;100414.63;2087813;28;20509;-51
2022/03/21 00:44:37;;;;;;;;;;;;;;;17.33;56.18;100413.41;2090160;28;20049;-55
2022/03/21 00:45:38;;;;;;;;;;;;;;;17.30;56.44;100413.69;2092133;28;20830;-51
2022/03/21 00:46:40;;;;;;;4.93;3.23;;;;;;;17.36;56.18;100413.94;2091532;28;19924;-53
2022/03/21 00:47:42;;;;;;;3.97;2.97;;;;;;;17.43;55.89;100417.69;2090603;28;20075;-57
2022/03/21 00:48:43;;;;;;;4.38;3.35;;;;;;;17.46;55.79;100419.22;2092190;28;20084;-57
2022/03/21 00:49:44;;;;;;;3.65;3.33;;;;;;;17.48;55.78;100417.22;2090406;28;20803;-52
2022/03/21 00:50:46;;;;;;;;;;;;;;;17.38;55.89;100422.69;2088696;28;20056;-53
2022/03/21 00:51:46;;;;;;;4.13;3.45;;;;;;;17.41;55.85;100424.19;2091993;28;20014;-50
2022/03/21 00:52:51;;;;;;;;;;;;;;;17.33;56.10;100419.59;2093969;28;20056;-56
2022/03/21 00:53:51;;;;;;;4.32;3.05;;;;;;;17.37;55.91;100410.25;2083315;28;19925;-54
2022/03/21 00:54:56;;;;;;;;;;;;;;;17.31;56.14;100421.59;2080642;28;20050;-53
2022/03/21 00:55:58;;;;;;;3.22;2.92;;;;;;;17.36;55.97;100411.25;2092050;28;19920;-54
2022/03/21 00:56:59;;;;;;;5.38;3.85;;;;;;;17.41;55.83;100410.78;2089301;28;20051;-52
2022/03/21 00:58:00;;;;;;;;;;;;;;;17.33;55.96;100418.78;2092123;28;20047;-54
2022/03/21 00:59:01;;;;;;;3.92;3.15;;;;;;;17.37;56.02;100422.81;2091964;28;19989;-54
2022/03/21 01:00:04;;;;;;;;;;;;;;;17.29;56.05;100410.16;2091636;28;20048;-53
2022/03/21 01:01:06;;;;;;;3.67;3.13;;;;;;;17.34;55.96;100409.72;2090903;28;19924;-55
2022/03/21 01:02:08;;;;;;;4.70;3.20;;;;;;;17.39;55.80;100407.44;2093471;28;20510;-52
2022/03/21 01:03:10;;;;;;;5.05;3.15;;;;;;;17.40;55.85;100403.75;2090595;28;20045;-53
2022/03/21 01:04:11;;;;;;;3.85;2.97;;;;;;;17.41;55.54;100414.31;2091753;28;20275;-51
2022/03/21 01:05:15;;;;;;;;;;;;;;;17.31;55.89;100415.38;2088815;28;20079;-52
2022/03/21 01:06:15;;;;;;;3.35;3.03;;;;;;;17.35;55.80;100416.75;2094379;28;19924;-54
2022/03/21 01:07:17;;;;;;;;;;;;;;;17.27;55.94;100414.81;2087393;28;20059;-51
2022/03/21 01:08:19;;;;;;;3.78;3.42;;;;;;;17.32;55.95;100417.06;2093602;28;19920;-52
2022/03/21 01:09:21;;;;;;;3.92;3.53;;;;;;;17.33;55.87;100416.94;2092053;28;20401;-54
2022/03/21 01:10:23;;;;;;;3.45;2.92;;;;;;;17.35;55.74;100412.22;2091319;28;20097;-54
2022/03/21 01:11:24;;;;;;;4.22;3.67;;;;;;;17.38;55.63;100413.75;2091096;28;20056;-54
2022/03/21 01:12:26;;;;;;;3.42;2.78;;;;;;;17.39;55.71;100413.63;2094541;28;20078;-51
2022/03/21 01:13:28;;;;;;;3.78;2.83;;;;;;;17.38;55.55;100405.72;2090036;28;20730;-53
2022/03/21 01:14:30;;;;;;;4.10;2.92;;;;;;;17.37;55.57;100412.09;2089261;28;20055;-52
2022/03/21 01:15:32;;;;;;;3.83;3.30;;;;;;;17.37;55.65;100409.41;2091028;28;20052;-51
2022/03/21 01:16:33;;;;;;;4.82;2.97;;;;;;;17.35;55.55;100406.88;2095746;28;20096;-53
2022/03/21 01:17:35;;;;;;;;;;;;;;;17.25;55.81;100416.00;2092783;28;20113;-52
2022/03/21 01:18:36;;;;;;;;;;;;;;;17.16;56.12;100407.00;2093010;28;20614;-54
2022/03/21 01:19:38;;;;;;;5.30;3.65;;;;;;;17.22;56.14;100400.19;2089110;28;19978;-52
2022/03/21 01:20:38;;;;;;;3.45;2.97;;;;;;;17.26;55.81;100415.84;2093725;28;20135;-53
2022/03/21 01:21:40;;;;;;;;;;;;;;;17.18;56.08;100413.06;2093348;28;20407;-54
2022/03/21 01:22:42;;;;;;;3.40;2.80;;;;;;;17.23;55.93;100408.09;2092334;28;19924;-54
2022/03/21 01:23:44;;;;;;;4.22;2.90;;;;;;;17.29;55.92;100409.31;2092610;28;20044;-55
2022/03/21 01:24:46;;;;;;;3.05;2.67;;;;;;;17.28;55.66;100399.59;2091910;28;20057;-53
2022/03/21 01:25:47;;;;;;;4.07;3.50;;;;;;;17.31;55.66;100404.66;2093683;28;20044;-50
2022/03/21 01:26:49;;;;;;;;;;;;;;;17.20;55.90;100409.25;2092445;28;20375;-53
2022/03/21 01:27:51;;;;;;;4.20;2.97;;;;;;;17.23;55.88;100409.94;2089409;28;19925;-53
2022/03/21 01:28:51;;;;;;;3.13;2.70;;;;;;;17.25;55.73;100413.31;2093653;28;20071;-55
2022/03/21 01:29:53;;;;;;;;;;;;;;;17.16;56.17;100407.88;2092680;28;20055;-52
2022/03/21 01:30:54;;;;;;;3.38;3.05;;;;;;;17.20;55.87;100408.41;2092025;28;19939;-54
2022/03/21 01:31:55;;;;;;;;;;;;;;;17.12;56.07;100403.78;2094993;28;20123;-53
2022/03/21 01:32:56;;;;;;;4.20;3.38;;;;;;;17.16;56.13;100405.19;2093330;28;19932;-55
2022/03/21 01:33:58;;;;;;;;;;;;;;;17.10;56.11;100407.59;2097527;28;20806;-54
2022/03/21 01:34:59;;;;;;;4.32;3.08;;;;;;;17.14;56.10;100401.81;2093772;28;19920;-54
2022/03/21 01:36:00;;;;;;;;;;;;;;;17.08;56.08;100405.09;2093848;28;20048;-51
2022/03/21 01:37:01;;;;;;;3.67;3.20;;;;;;;17.14;56.08;100404.47;2091666;28;19932;-53
2022/03/21 01:38:03;;;;;;;;;;;;;;;17.06;56.20;100406.25;2091149;28;20716;-54
2022/03/21 01:39:05;;;;;;;;;;;;;;;17.01;56.29;100405.84;2092061;28;20420;-54
2022/03/21 01:40:08;;;;;;;3.40;3.08;;;;;;;17.09;56.16;100401.41;2091138;28;20390;-54
2022/03/21 01:41:09;;;;;;;5.72;3.35;;;;;;;17.14;55.98;100399.13;2089890;28;20048;-53
2022/03/21 01:42:10;;;;;;;;;;;;;;;17.06;56.20;100403.56;2094163;28;20051;-52
2022/03/21 01:43:12;;;;;;;3.78;3.42;;;;;;;17.10;56.09;100400.41;2093247;28;19952;-52
2022/03/21 01:44:14;;;;;;;4.40;3.42;;;;;;;17.14;55.84;100401.81;2094452;28;20047;-55
2022/03/21 01:45:16;;;;;;;4.18;3.55;;;;;;;17.15;55.91;100394.59;2093167;28;20143;-55
2022/03/21 01:46:18;;;;;;;4.90;2.78;;;;;;;17.15;55.86;100394.59;2098003;28;20044;-55
2022/03/21 01:47:20;;;;;;;4.13;3.67;;;;;;;17.15;55.83;100395.44;2095788;28;20048;-50
2022/03/21 01:48:20;;;;;;;4.88;3.83;;;;;;;17.17;55.67;100393.44;2095009;28;20417;-53
2022/03/21 01:49:22;;;;;;;;;;;;;;;17.07;55.88;100394.50;2095593;28;20122;-54
2022/03/21 01:50:23;;;;;;;3.28;2.97;;;;;;;17.10;56.03;100395.03;2095573;28;19920;-54
2022/03/21 01:51:26;;;;;;;3.30;3.00;;;;;;;17.12;56.08;100400.25;2094273;28;20901;-54
2022/03/21 01:52:27;;;;;;;3.33;3.03;;;;;;;17.11;56.11;100391.38;2093318;28;20075;-52
2022/03/21 01:56:09;;;;;;;3.65;2.97;;;;;;;17.06;56.10;100399.03;2087834;28;20044;-55
2022/03/21 01:57:11;;;;;;;3.35;3.05;;;;;;;17.09;55.89;100392.53;2094398;28;20040;-54
2022/03/21 01:58:14;;;;;;;3.95;3.20;;;;;;;17.10;55.89;100387.00;2089770;28;20475;-54
2022/03/21 01:59:17;;;;;;;3.45;2.83;;;;;;;17.10;55.81;100397.72;2091826;28;20051;-53
2022/03/21 02:00:19;;;;;;;3.42;3.13;;;;;;;17.11;55.79;100390.53;2090157;28;20078;-54
2022/03/21 02:01:20;;;;;;;3.85;3.05;;;;;;;17.11;55.90;100396.75;2090821;28;20048;-53
2022/03/21 02:02:21;;;;;;;;;;;;;;;17.01;56.06;100393.28;2092829;28;20111;-54
2022/03/21 02:03:22;;;;;;;3.15;2.85;;;;;;;17.04;56.09;100392.97;2092995;28;19990;-52
2022/03/21 02:04:24;;;;;;;;;;;;;;;16.95;56.15;100383.16;2094090;28;20111;-50
2022/03/21 02:05:25;;;;;;;4.90;3.38;;;;;;;16.99;55.82;100384.53;2089359;28;19963;-53
2022/03/21 02:06:28;;;;;;;;;;;;;;;16.92;56.29;100388.81;2091215;28;20044;-54
2022/03/21 02:07:29;;;;;;;3.80;3.10;;;;;;;16.97;56.14;100381.19;2092797;28;19920;-53
2022/03/21 02:08:30;;;;;;;;;;;;;;;16.88;56.43;100385.59;2094744;28;20048;-54
2022/03/21 02:09:31;;;;;;;3.40;2.70;;;;;;;16.94;56.15;100384.16;2092454;28;20774;-53
2022/03/21 02:10:34;;;;;;;;;;;;;;;16.87;56.32;100383.91;2093458;28;20070;-54
2022/03/21 02:11:36;;;;;;;3.35;3.05;;;;;;;16.92;56.25;100376.25;2094940;28;19931;-52
2022/03/21 02:12:39;;;;;;;5.82;3.67;;;;;;;16.97;56.08;100373.13;2093966;28;20701;-53
2022/03/21 02:13:40;;;;;;;3.28;2.95;;;;;;;16.99;55.99;100381.84;2089927;28;20072;-53
2022/03/21 02:14:42;;;;;;;;;;;;;;;16.90;56.19;100388.97;2096896;28;20055;-54
2022/03/21 02:15:43;;;;;;;4.10;3.53;;;;;;;16.94;56.17;100386.84;2092478;28;19920;-53
2022/03/21 02:16:44;;;;;;;;;;;;;;;16.85;56.29;100380.50;2098366;28;20040;-51
2022/03/21 02:17:46;;;;;;;4.60;3.15;;;;;;;16.90;56.13;100380.06;2094315;28;19924;-52
2022/03/21 02:18:49;;;;;;;4.00;3.15;;;;;;;16.93;56.15;100375.25;2095806;28;20048;-52
2022/03/21 02:19:51;;;;;;;3.42;2.90;;;;;;;16.97;56.09;100381.19;2095786;28;20045;-54
2022/03/21 02:20:54;;;;;;;3.95;3.22;;;;;;;16.98;55.88;100382.84;2085942;28;20410;-54
2022/03/21 02:22:07;;;;;;;3.50;3.05;;;;;;;16.96;55.93;100376.78;2094358;28;20048;-55
2022/03/21 02:23:14;;;;;;;3.88;3.47;;;;;;;16.96;56.03;100374.94;2097302;28;20579;-53
2022/03/21 02:24:24;;;;;;;3.83;3.45;;;;;;;16.95;55.94;100378.63;2094001;28;20055;-54
2022/03/21 02:25:31;;;;;;;4.75;3.17;;;;;;;16.95;55.93;100373.28;2095718;28;20044;-50
2022/03/21 02:26:33;;;;;;;4.07;3.38;;;;;;;16.92;56.00;100370.91;2093906;28;21658;-52
2022/03/21 02:27:36;;;;;;;4.80;2.55;;;;;;;16.94;56.05;100376.13;2094584;28;20056;-52
2022/03/21 02:28:40;;;;;;;3.17;2.88;;;;;;;16.96;55.88;100379.47;2096566;28;20530;-53
2022/03/21 02:29:42;;;;;;;3.58;3.00;;;;;;;16.95;55.87;100378.63;2096281;28;20055;-52
2022/03/21 02:30:47;;;;;;;5.10;3.17;;;;;;;16.93;55.92;100374.41;2093233;28;20048;-54
2022/03/21 02:31:49;;;;;;;3.60;3.00;;;;;;;16.92;55.89;100372.75;2091123;28;20063;-54
2022/03/21 02:32:51;;;;;;;3.67;3.38;;;;;;;16.92;56.07;100373.56;2095475;28;20052;-53
2022/03/21 02:33:53;;;;;;;3.30;2.95;;;;;;;16.91;56.01;100371.91;2094143;28;20081;-55
2022/03/21 02:34:56;;;;;;;4.15;3.70;;;;;;;16.92;56.05;100372.75;2084552;28;20052;-53
2022/03/21 02:35:59;;;;;;;3.67;3.28;;;;;;;16.92;55.99;100370.91;2093883;28;20049;-51
2022/03/21 02:37:01;;;;;;;4.43;3.17;;;;;;;16.93;56.00;100374.41;2093972;28;20052;-52
2022/03/21 02:38:03;;;;;;;3.53;3.03;;;;;;;16.91;55.84;100377.25;2091214;28;20044;-54
2022/03/21 02:39:04;;;;;;;4.93;3.22;;;;;;;16.90;55.93;100377.41;2092897;28;20642;-51
2022/03/21 02:40:08;;;;;;;;;;;;;;;16.79;56.31;100380.28;2092440;28;20052;-54
2022/03/21 02:41:12;;;;;;;2.90;2.60;;;;;;;16.81;56.08;100378.31;2090431;28;19982;-53
2022/03/21 02:42:14;;;;;;;2.92;2.33;;;;;;;16.86;56.00;100381.38;2091756;28;20192;-54
2022/03/21 02:43:15;;;;;;;4.43;3.60;;;;;;;16.86;56.11;100382.22;2093401;28;20047;-54
2022/03/21 02:44:17;;;;;;;;;;;;;;;16.74;56.46;100370.84;2090975;28;20068;-54
2022/03/21 02:45:17;;;;;;;2.88;2.58;;;;;;;16.78;56.19;100376.78;2088501;28;20286;-55
2022/03/21 02:46:19;;;;;;;;;;;;;;;16.69;56.62;100373.13;2088813;28;20041;-53
2022/03/21 02:47:21;;;;;;;4.13;3.08;;;;;;;16.74;56.41;100380.69;2090236;28;19924;-54
2022/03/21 02:48:21;;;;;;;3.53;3.03;;;;;;;16.79;56.25;100373.09;2091248;28;20044;-54
2022/03/21 02:49:23;;;;;;;;;;;;;;;16.69;56.42;100385.69;2092035;28;20052;-52
2022/03/21 02:50:32;;;;;;;3.33;2.95;;;;;;;16.73;56.30;100381.69;2080811;28;19955;-54
2022/03/21 02:51:39;;;;;;;3.33;2.83;;;;;;;16.75;56.27;100377.88;2090289;28;20178;-53
2022/03/21 02:52:43;;;;;;;3.15;2.20;;;;;;;16.77;56.25;100374.22;2092501;28;20097;-54
2022/03/21 02:53:46;;;;;;;4.47;3.30;;;;;;;16.78;56.15;100379.44;2095389;28;20048;-53
2022/03/21 02:54:47;;;;;;;2.95;2.53;;;;;;;16.78;56.16;100381.28;2093978;28;20048;-51
2022/03/21 02:55:53;;;;;;;;;;;;;;;16.67;56.28;100375.09;2095671;28;20056;-52
2022/03/21 02:56:57;;;;;;;3.35;3.05;;;;;;;16.72;56.31;100378.19;2085562;28;19920;-54
2022/03/21 02:57:58;;;;;;;3.85;2.72;;;;;;;16.74;56.39;100376.19;2081544;28;20057;-52
2022/03/21 02:59:00;;;;;;;;;;;;;;;16.64;56.58;100375.41;2086640;28;20646;-55
2022/03/21 03:00:02;;;;;;;3.08;2.60;;;;;;;16.67;56.51;100375.09;2087224;28;19920;-54
2022/03/21 03:01:07;;;;;;;3.10;2.58;;;;;;;16.72;56.25;100383.53;2083531;28;20061;-57
2022/03/21 03:02:09;;;;;;;3.40;2.83;;;;;;;16.72;56.51;100383.53;2093971;28;20074;-55
2022/03/21 03:03:10;;;;;;;4.75;3.00;;;;;;;16.75;56.32;100385.91;2094394;28;20052;-58
2022/03/21 03:04:11;;;;;;;;;;;;;;;16.62;56.50;100382.72;2094108;28;20052;-56
2022/03/21 03:05:12;;;;;;;3.35;2.72;;;;;;;16.66;56.29;100378.78;2093293;28;20009;-56
2022/03/21 03:06:13;;;;;;;;;;;;;;;16.56;56.61;100383.31;2095423;28;20314;-56
2022/03/21 03:07:14;;;;;;;3.40;3.10;;;;;;;16.62;56.50;100382.72;2095829;28;19920;-53
2022/03/21 03:08:16;;;;;;;;;;;;;;;16.56;56.50;100377.13;2091599;28;20411;-55
2022/03/21 03:09:17;;;;;;;3.55;3.00;;;;;;;16.60;56.64;100373.97;2093024;28;19959;-54
2022/03/21 03:10:18;;;;;;;;;;;;;;;16.52;56.82;100380.09;2093006;28;20462;-57
2022/03/21 03:11:19;;;;;;;3.00;2.60;;;;;;;16.59;56.51;100376.84;2093863;28;19921;-54
2022/03/21 03:12:22;;;;;;;;;;;;;;;16.50;56.83;100376.72;2091574;28;20044;-56
2022/03/21 03:13:24;;;;;;;3.38;3.08;;;;;;;16.59;56.61;100376.84;2091659;28;20559;-57
2022/03/21 03:14:25;;;;;;;3.65;2.90;;;;;;;16.61;56.56;100378.38;2091478;28;20040;-55
2022/03/21 03:15:26;;;;;;;3.83;3.22;;;;;;;16.64;56.40;100383.44;2091232;28;20072;-53
2022/03/21 03:16:28;;;;;;;;;;;;;;;16.53;56.61;100388.97;2089785;28;20131;-57
2022/03/21 03:17:28;;;;;;;;;;;;;;;16.44;56.88;100384.50;2093191;28;19943;-57
2022/03/21 03:18:30;;;;;;;3.30;3.00;;;;;;;16.49;56.86;100388.44;2090760;28;20484;-58
2022/03/21 03:19:31;;;;;;;3.10;2.80;;;;;;;16.57;56.54;100390.34;2086954;28;20048;-57
2022/03/21 03:20:33;;;;;;;;;;;;;;;16.47;56.63;100389.56;2095001;28;20050;-53
2022/03/21 03:21:35;;;;;;;;;;;;;;;16.39;56.86;100389.47;2096563;28;19928;-55
2022/03/21 03:22:38;;;;;;;3.58;2.92;;;;;;;16.50;56.71;100383.91;2094865;28;19924;-57
2022/03/21 03:23:42;;;;;;;4.03;2.88;;;;;;;16.54;56.44;100388.81;2093998;28;20044;-58
2022/03/21 03:24:43;;;;;;;4.63;3.78;;;;;;;16.58;56.68;100385.88;2095881;28;20054;-53
2022/03/21 03:25:45;;;;;;;2.72;2.53;;;;;;;16.60;56.39;100382.03;2094779;28;20041;-55
2022/03/21 03:26:47;;;;;;;3.40;2.60;;;;;;;16.58;56.33;100381.34;2094678;28;20155;-56
2022/03/21 03:27:49;;;;;;;3.53;2.97;;;;;;;16.61;56.31;100386.41;2094725;28;20056;-54
2022/03/21 03:28:51;;;;;;;3.47;2.45;;;;;;;16.61;56.40;100381.06;2094412;28;20045;-53
2022/03/21 03:29:51;;;;;;;2.90;2.60;;;;;;;16.62;56.18;100382.72;2093694;28;20036;-61
2022/03/21 03:30:54;;;;;;;;;;;;;;;16.51;56.55;100390.94;2094841;28;20048;-56
2022/03/21 03:31:54;;;;;;;3.72;2.78;;;;;;;16.53;56.33;100384.47;2094083;28;19924;-54
2022/03/21 03:32:56;;;;;;;;;;;;;;;16.43;56.60;100382.81;2092223;28;20056;-58
2022/03/21 03:33:58;;;;;;;4.22;2.92;;;;;;;16.46;56.60;100385.19;2097318;28;19920;-51
2022/03/21 03:34:59;;;;;;;3.85;3.17;;;;;;;16.51;56.64;100386.44;2097139;28;20623;-54
2022/03/21 03:36:00;;;;;;;3.78;2.72;;;;;;;16.53;56.45;100383.63;2092677;28;20056;-58
2022/03/21 03:37:02;;;;;;;;;;;;;;;16.42;56.63;100381.97;2094225;28;20148;-54
2022/03/21 03:38:04;;;;;;;4.53;2.90;;;;;;;16.49;56.65;100377.72;2092745;28;19928;-56
2022/03/21 03:39:06;;;;;;;3.20;2.90;;;;;;;16.52;56.37;100389.97;2093804;28;20070;-52
2022/03/21 03:40:08;;;;;;;3.53;2.78;;;;;;;16.49;56.35;100375.03;2091350;28;20057;-57
2022/03/21 03:41:10;;;;;;;3.45;3.13;;;;;;;16.53;56.21;100384.47;2091634;28;20403;-58
2022/03/21 03:42:11;;;;;;;3.55;2.95;;;;;;;16.51;56.48;100381.06;2090155;28;20074;-55
2022/03/21 03:43:15;;;;;;;;;;;;;;;16.40;56.47;100375.06;2094483;28;20552;-55
2022/03/21 03:44:17;;;;;;;3.25;2.88;;;;;;;16.45;56.60;100380.84;2092128;28;19928;-53
2022/03/21 03:45:19;;;;;;;3.75;2.50;;;;;;;16.49;56.57;100376.84;2092781;28;20050;-55
2022/03/21 03:46:21;;;;;;;3.08;2.78;;;;;;;16.47;56.37;100378.84;2095366;28;20096;-57
2022/03/21 03:47:22;;;;;;;3.35;2.78;;;;;;;16.49;56.29;100376.84;2094719;28;20521;-56
2022/03/21 03:48:23;;;;;;;4.07;3.17;;;;;;;16.50;56.35;100375.88;2091448;28;20049;-54
2022/03/21 03:49:25;;;;;;;;;;;;;;;16.37;56.54;100378.03;2091894;28;20480;-52
2022/03/21 03:50:25;;;;;;;;;;;;;;;16.28;56.69;100382.44;2091796;28;19955;-58
2022/03/21 03:51:27;;;;;;;2.90;2.40;;;;;;;16.33;56.64;100382.84;2088676;28;19928;-54
2022/03/21 03:52:28;;;;;;;3.17;2.65;;;;;;;16.40;56.69;100383.09;2091121;28;20395;-56
2022/03/21 03:53:30;;;;;;;;;;;;;;;16.29;56.94;100381.44;2093731;28;20077;-57
2022/03/21 03:54:30;;;;;;;;;;;;;;;16.22;56.91;100381.19;2093100;28;20282;-56
2022/03/21 03:55:32;;;;;;;2.50;2.23;;;;;;;16.30;56.93;100381.31;2094327;28;19920;-54
2022/03/21 03:56:33;;;;;;;3.38;3.08;;;;;;;16.34;56.63;100381.00;2081554;28;20074;-53
2022/03/21 03:57:34;;;;;;;;;;;;;;;16.26;56.64;100376.38;2089314;28;20052;-53
2022/03/21 03:58:37;;;;;;;3.15;2.85;;;;;;;16.31;56.65;100377.63;2089814;28;19924;-56
2022/03/21 03:59:40;;;;;;;3.03;2.78;;;;;;;16.36;56.63;100377.22;2091865;28;20048;-53
2022/03/21 04:00:41;;;;;;;3.22;2.88;;;;;;;16.39;56.38;100384.09;2094393;28;20051;-53
2022/03/21 04:01:42;;;;;;;3.05;2.75;;;;;;;16.39;56.42;100376.06;2089644;28;21147;-53
2022/03/21 04:04:04;;;;;;;4.53;2.75;;;;;;;16.30;56.50;100375.97;2087526;28;19921;-57
2022/03/21 04:05:05;;;;;;;4.30;3.03;;;;;;;16.36;56.55;100371.00;2091648;28;20052;-57
2022/03/21 04:06:06;;;;;;;;;;;;;;;16.25;56.77;100369.34;2091878;28;20071;-53
2022/03/21 04:07:07;;;;;;;3.40;3.00;;;;;;;16.29;56.59;100381.44;2093947;28;19931;-51
2022/03/21 04:08:09;;;;;;;;;;;;;;;16.21;56.72;100382.16;2093401;28;20043;-55
2022/03/21 04:09:10;;;;;;;3.08;2.63;;;;;;;16.25;56.80;100383.59;2092668;28;19936;-55
2022/03/21 04:10:11;;;;;;;;;;;;;;;16.17;56.88;100378.09;2090371;28;20551;-56
2022/03/21 04:11:13;;;;;;;4.60;3.38;;;;;;;16.24;56.86;100379.22;2093597;28;19928;-54
2022/03/21 04:12:14;;;;;;;3.40;3.05;;;;;;;16.27;56.77;100378.94;2094752;28;20052;-53
2022/03/21 04:13:15;;;;;;;3.70;3.10;;;;;;;16.33;56.74;100385.53;2089933;28;20532;-51
2022/03/21 04:14:18;;;;;;;;;;;;;;;16.21;56.81;100382.16;2094459;28;20052;-54
2022/03/21 04:15:20;;;;;;;3.30;2.97;;;;;;;16.27;56.74;100381.59;2088751;28;19970;-54
2022/03/21 04:16:22;;;;;;;3.35;2.75;;;;;;;16.31;56.33;100380.31;2092207;28;20054;-51
2022/03/21 04:17:23;;;;;;;5.00;3.13;;;;;;;16.30;56.37;100378.63;2091120;28;20098;-52
2022/03/21 04:18:25;;;;;;;;;;;;;;;16.21;56.75;100379.50;2091251;28;20037;-53
2022/03/21 04:19:27;;;;;;;3.50;2.90;;;;;;;16.27;56.92;100386.13;2091187;28;19931;-51
2022/03/21 04:20:31;;;;;;;3.38;2.83;;;;;;;16.28;56.42;100385.97;2095240;28;20048;-52
2022/03/21 04:21:32;;;;;;;2.85;2.25;;;;;;;16.30;56.50;100386.66;2090315;28;20048;-54
2022/03/21 04:22:34;;;;;;;;;;;;;;;16.20;56.77;100383.16;2093418;28;20040;-54
2022/03/21 04:23:36;;;;;;;3.63;2.63;;;;;;;16.23;56.52;100385.56;2091802;28;19932;-54
2022/03/21 04:24:37;;;;;;;3.28;2.95;;;;;;;16.25;56.68;100388.94;2094148;28;20043;-54
2022/03/21 04:25:38;;;;;;;;;;;;;;;16.16;56.80;100387.13;2092555;28;20052;-53
2022/03/21 04:26:39;;;;;;;4.20;2.97;;;;;;;16.19;56.67;100392.19;2091942;28;19920;-54
2022/03/21 04:27:41;;;;;;;;;;;;;;;16.12;56.76;100396.44;2089571;28;20624;-54
2022/03/21 04:28:42;;;;;;;3.15;2.80;;;;;;;16.17;56.70;100388.81;2091058;28;19924;-54
2022/03/21 04:29:45;;;;;;;;;;;;;;;16.09;57.00;100392.22;2092994;28;20123;-52
2022/03/21 04:30:46;;;;;;;3.33;2.78;;;;;;;16.14;56.73;100397.13;2095889;28;19955;-54
2022/03/21 04:31:47;;;;;;;;;;;;;;;16.12;57.05;100400.94;2094602;28;20056;-53
2022/03/21 04:32:48;;;;;;;3.47;3.08;;;;;;;16.18;56.70;100393.16;2094422;28;20613;-55
2022/03/21 04:33:50;;;;;;;;;;;;;;;16.12;56.77;100391.06;2092383;28;20132;-52
2022/03/21 04:34:50;;;;;;;2.22;1.98;;;;;;;16.22;56.49;100391.91;2092593;28;19924;-51
2022/03/21 04:35:52;;;;;;;;;;;;;;;16.18;56.61;100397.69;2094727;28;20714;-54
2022/03/21 04:36:54;;;;;;;3.88;2.88;;;;;;;16.27;56.36;100404.88;2092442;28;19921;-54
2022/03/21 04:37:55;;;;;;;3.22;2.70;;;;;;;16.31;56.26;100399.06;2091741;28;20104;-53
2022/03/21 04:38:57;;;;;;;;;;;;;;;16.28;56.32;100403.88;2091853;28;20043;-55
2022/03/21 04:39:58;;;;;;;3.35;3.00;;;;;;;16.34;56.29;100397.09;2092137;28;19968;-53
2022/03/21 04:40:59;;;;;;;;;;;;;;;16.29;56.35;100408.22;2090201;28;20055;-53
2022/03/21 04:42:00;;;;;;;;;;;;;;;16.26;56.42;100408.50;2094832;28;19923;-53
2022/03/21 04:43:02;;;;;;;3.63;2.43;;;;;;;16.32;56.22;100402.56;2091658;28;19924;-55
2022/03/21 04:44:04;;;;;;;3.00;2.40;;;;;;;16.38;56.05;100407.38;2093874;28;20661;-52
2022/03/21 04:45:07;;;;;;;5.05;3.05;;;;;;;16.42;56.03;100408.75;2090003;28;20045;-53
2022/03/21 04:46:09;;;;;;;3.42;3.13;;;;;;;16.46;55.86;100406.63;2091824;28;20066;-54
2022/03/21 04:47:10;;;;;;;3.65;2.55;;;;;;;16.48;55.92;100415.34;2091318;28;20052;-52
2022/03/21 04:48:12;;;;;;;;;;;;;;;16.39;56.08;100410.88;2093057;28;20052;-55
2022/03/21 04:49:13;;;;;;;3.78;3.08;;;;;;;16.42;56.02;100411.44;2090426;28;19924;-53
2022/03/21 04:50:15;;;;;;;;;;;;;;;16.34;56.14;100415.81;2093679;28;20041;-54
2022/03/21 04:51:15;;;;;;;4.25;2.90;;;;;;;16.40;56.15;100415.25;2092578;28;19924;-54
2022/03/21 04:52:17;;;;;;;;;;;;;;;16.34;56.33;100415.81;2095332;28;20867;-54
2022/03/21 04:53:19;;;;;;;3.08;2.78;;;;;;;16.39;56.19;100413.56;2092639;28;20552;-53
2022/03/21 04:54:20;;;;;;;4.25;2.88;;;;;;;16.43;56.01;100418.47;2093313;28;20047;-52
2022/03/21 04:55:21;;;;;;;;;;;;;;;16.37;56.18;100405.66;2092044;28;20048;-51
2022/03/21 04:56:22;;;;;;;3.03;2.28;;;;;;;16.41;56.06;100414.25;2093102;28;19930;-53
2022/03/21 04:57:25;;;;;;;4.03;3.30;;;;;;;16.46;56.02;100409.28;2086716;28;20064;-55
2022/03/21 04:58:25;;;;;;;2.72;2.33;;;;;;;16.49;55.70;100417.03;2093105;28;20135;-52
2022/03/21 04:59:27;;;;;;;;;;;;;;;16.40;56.07;100409.88;2092054;28;20048;-52
2022/03/21 05:00:30;;;;;;;3.03;2.60;;;;;;;16.43;55.92;100418.47;2090901;28;20054;-54